sensor_id;sensor_type;location;lat;lon;timestamp;P1;durP1;ratioP1;P2;durP2;ratioP2
79691;SDS011;69158;55.592;37.610;2023-04-28T00:02:21;14.43;;;10.20;;
79691;SDS011;69158;55.592;37.610;2023-04-28T00:05:07;16.90;;;10.18;;
79691;SDS011;69158;55.592;37.610;2023-04-28T00:07:53;16.13;;;10.55;;
79691;SDS011;69158;55.592;37.610;2023-04-28T00:10:39;18.73;;;10.85;;
79691;SDS011;69158;55.592;37.610;2023-04-28T00:13:25;16.63;;;11.52;;
79691;SDS011;69158;55.592;37.610;2023-04-28T00:16:11;17.98;;;12.43;;
79691;SDS011;69158;55.592;37.610;2023-04-28T00:18:57;17.92;;;9.57;;
79691;SDS011;69158;55.592;37.610;2023-04-28T00:21:43;17.98;;;12.30;;
79691;SDS011;69158;55.592;37.610;2023-04-28T00:24:29;21.85;;;11.88;;
79691;SDS011;69158;55.592;37.610;2023-04-28T00:27:17;19.92;;;12.05;;
79691;SDS011;69158;55.592;37.610;2023-04-28T00:30:03;19.30;;;11.25;;
79691;SDS011;69158;55.592;37.610;2023-04-28T00:32:49;19.98;;;10.23;;
79691;SDS011;69158;55.592;37.610;2023-04-28T00:35:36;16.95;;;10.30;;
79691;SDS011;69158;55.592;37.610;2023-04-28T00:38:21;20.42;;;12.13;;
79691;SDS011;69158;55.592;37.610;2023-04-28T00:41:09;20.58;;;13.30;;
79691;SDS011;69158;55.592;37.610;2023-04-28T00:43:56;23.40;;;13.20;;
79691;SDS011;69158;55.592;37.610;2023-04-28T00:46:42;36.22;;;21.63;;
79691;SDS011;69158;55.592;37.610;2023-04-28T00:49:28;41.05;;;28.80;;
79691;SDS011;69158;55.592;37.610;2023-04-28T00:52:14;28.90;;;21.30;;
79691;SDS011;69158;55.592;37.610;2023-04-28T00:55:00;24.65;;;18.98;;
79691;SDS011;69158;55.592;37.610;2023-04-28T00:57:46;22.33;;;16.70;;
79691;SDS011;69158;55.592;37.610;2023-04-28T01:00:33;24.45;;;14.00;;
79691;SDS011;69158;55.592;37.610;2023-04-28T01:03:19;23.65;;;15.60;;
79691;SDS011;69158;55.592;37.610;2023-04-28T01:06:06;27.33;;;21.40;;
79691;SDS011;69158;55.592;37.610;2023-04-28T01:08:54;23.85;;;17.15;;
79691;SDS011;69158;55.592;37.610;2023-04-28T01:11:40;25.75;;;18.77;;
79691;SDS011;69158;55.592;37.610;2023-04-28T01:14:26;24.40;;;15.15;;
79691;SDS011;69158;55.592;37.610;2023-04-28T01:17:12;21.38;;;13.82;;
79691;SDS011;69158;55.592;37.610;2023-04-28T01:19:58;17.48;;;10.75;;
79691;SDS011;69158;55.592;37.610;2023-04-28T01:22:44;19.55;;;12.52;;
79691;SDS011;69158;55.592;37.610;2023-04-28T01:25:30;23.00;;;10.93;;
79691;SDS011;69158;55.592;37.610;2023-04-28T01:28:16;20.23;;;11.63;;
79691;SDS011;69158;55.592;37.610;2023-04-28T01:31:02;19.50;;;11.40;;
79691;SDS011;69158;55.592;37.610;2023-04-28T01:33:48;19.63;;;9.85;;
79691;SDS011;69158;55.592;37.610;2023-04-28T01:36:34;15.88;;;10.05;;
79691;SDS011;69158;55.592;37.610;2023-04-28T01:39:19;17.20;;;9.38;;
79691;SDS011;69158;55.592;37.610;2023-04-28T01:42:06;16.88;;;10.05;;
79691;SDS011;69158;55.592;37.610;2023-04-28T01:44:52;16.17;;;9.63;;
79691;SDS011;69158;55.592;37.610;2023-04-28T01:47:37;17.85;;;11.35;;
79691;SDS011;69158;55.592;37.610;2023-04-28T01:50:23;20.17;;;10.70;;
79691;SDS011;69158;55.592;37.610;2023-04-28T01:53:09;21.27;;;12.30;;
79691;SDS011;69158;55.592;37.610;2023-04-28T01:55:56;17.65;;;9.50;;
79691;SDS011;69158;55.592;37.610;2023-04-28T01:58:43;18.27;;;12.27;;
79691;SDS011;69158;55.592;37.610;2023-04-28T02:01:28;19.85;;;11.85;;
79691;SDS011;69158;55.592;37.610;2023-04-28T02:04:14;21.75;;;13.20;;
79691;SDS011;69158;55.592;37.610;2023-04-28T02:07:00;18.52;;;12.68;;
79691;SDS011;69158;55.592;37.610;2023-04-28T02:09:46;16.48;;;12.30;;
79691;SDS011;69158;55.592;37.610;2023-04-28T02:12:32;21.63;;;12.98;;
79691;SDS011;69158;55.592;37.610;2023-04-28T02:15:18;19.45;;;11.63;;
79691;SDS011;69158;55.592;37.610;2023-04-28T02:18:04;17.33;;;11.32;;
79691;SDS011;69158;55.592;37.610;2023-04-28T02:20:50;16.58;;;11.30;;
79691;SDS011;69158;55.592;37.610;2023-04-28T02:23:36;16.70;;;11.25;;
79691;SDS011;69158;55.592;37.610;2023-04-28T02:26:22;19.02;;;12.50;;
79691;SDS011;69158;55.592;37.610;2023-04-28T02:29:08;22.50;;;16.63;;
79691;SDS011;69158;55.592;37.610;2023-04-28T02:31:55;20.33;;;11.90;;
79691;SDS011;69158;55.592;37.610;2023-04-28T02:34:40;20.50;;;11.68;;
79691;SDS011;69158;55.592;37.610;2023-04-28T02:37:26;18.85;;;13.13;;
79691;SDS011;69158;55.592;37.610;2023-04-28T02:40:12;18.98;;;13.98;;
79691;SDS011;69158;55.592;37.610;2023-04-28T02:42:58;22.58;;;14.95;;
79691;SDS011;69158;55.592;37.610;2023-04-28T02:45:45;18.13;;;13.25;;
79691;SDS011;69158;55.592;37.610;2023-04-28T02:48:31;19.20;;;11.55;;
79691;SDS011;69158;55.592;37.610;2023-04-28T02:51:20;23.13;;;15.02;;
79691;SDS011;69158;55.592;37.610;2023-04-28T02:54:06;19.00;;;13.02;;
79691;SDS011;69158;55.592;37.610;2023-04-28T02:56:53;22.63;;;14.30;;
79691;SDS011;69158;55.592;37.610;2023-04-28T02:59:40;20.35;;;12.05;;
79691;SDS011;69158;55.592;37.610;2023-04-28T03:02:26;20.80;;;14.25;;
79691;SDS011;69158;55.592;37.610;2023-04-28T03:05:12;20.23;;;12.60;;
79691;SDS011;69158;55.592;37.610;2023-04-28T03:07:57;21.20;;;12.43;;
79691;SDS011;69158;55.592;37.610;2023-04-28T03:10:44;19.85;;;12.00;;
79691;SDS011;69158;55.592;37.610;2023-04-28T03:13:39;21.85;;;12.52;;
79691;SDS011;69158;55.592;37.610;2023-04-28T03:16:25;24.70;;;12.70;;
79691;SDS011;69158;55.592;37.610;2023-04-28T03:19:11;21.52;;;12.88;;
79691;SDS011;69158;55.592;37.610;2023-04-28T03:21:57;20.23;;;14.52;;
79691;SDS011;69158;55.592;37.610;2023-04-28T03:24:42;20.60;;;16.10;;
79691;SDS011;69158;55.592;37.610;2023-04-28T03:27:28;22.48;;;15.25;;
79691;SDS011;69158;55.592;37.610;2023-04-28T03:30:14;21.58;;;13.05;;
79691;SDS011;69158;55.592;37.610;2023-04-28T03:33:03;22.05;;;13.02;;
79691;SDS011;69158;55.592;37.610;2023-04-28T03:35:49;21.30;;;15.52;;
79691;SDS011;69158;55.592;37.610;2023-04-28T03:38:35;20.10;;;13.07;;
79691;SDS011;69158;55.592;37.610;2023-04-28T03:41:21;19.77;;;12.80;;
79691;SDS011;69158;55.592;37.610;2023-04-28T03:44:07;18.88;;;13.90;;
79691;SDS011;69158;55.592;37.610;2023-04-28T03:46:53;21.60;;;14.02;;
79691;SDS011;69158;55.592;37.610;2023-04-28T03:49:39;20.02;;;12.32;;
79691;SDS011;69158;55.592;37.610;2023-04-28T03:52:25;18.70;;;12.32;;
79691;SDS011;69158;55.592;37.610;2023-04-28T03:55:11;19.55;;;13.40;;
79691;SDS011;69158;55.592;37.610;2023-04-28T03:57:57;19.60;;;14.52;;
79691;SDS011;69158;55.592;37.610;2023-04-28T04:00:23;23.20;;;11.27;;
79691;SDS011;69158;55.592;37.610;2023-04-28T04:03:09;22.08;;;13.32;;
79691;SDS011;69158;55.592;37.610;2023-04-28T04:05:54;18.48;;;10.85;;
79691;SDS011;69158;55.592;37.610;2023-04-28T04:08:39;19.38;;;13.25;;
79691;SDS011;69158;55.592;37.610;2023-04-28T04:11:05;22.67;;;12.75;;
79691;SDS011;69158;55.592;37.610;2023-04-28T04:13:43;25.55;;;12.60;;
79691;SDS011;69158;55.592;37.610;2023-04-28T04:16:09;18.67;;;13.05;;
79691;SDS011;69158;55.592;37.610;2023-04-28T04:18:35;16.80;;;12.63;;
79691;SDS011;69158;55.592;37.610;2023-04-28T04:21:01;19.05;;;12.77;;
79691;SDS011;69158;55.592;37.610;2023-04-28T04:23:45;19.90;;;11.45;;
79691;SDS011;69158;55.592;37.610;2023-04-28T04:26:11;19.80;;;10.52;;
79691;SDS011;69158;55.592;37.610;2023-04-28T04:28:36;18.75;;;11.80;;
79691;SDS011;69158;55.592;37.610;2023-04-28T04:31:02;20.25;;;11.10;;
79691;SDS011;69158;55.592;37.610;2023-04-28T04:33:28;18.88;;;11.70;;
79691;SDS011;69158;55.592;37.610;2023-04-28T04:35:53;18.95;;;10.30;;
79691;SDS011;69158;55.592;37.610;2023-04-28T04:38:20;19.40;;;11.32;;
79691;SDS011;69158;55.592;37.610;2023-04-28T04:40:45;18.88;;;13.48;;
79691;SDS011;69158;55.592;37.610;2023-04-28T04:43:30;20.00;;;10.90;;
79691;SDS011;69158;55.592;37.610;2023-04-28T04:46:16;19.42;;;13.30;;
79691;SDS011;69158;55.592;37.610;2023-04-28T04:49:02;19.83;;;12.23;;
79691;SDS011;69158;55.592;37.610;2023-04-28T04:51:48;21.95;;;12.68;;
79691;SDS011;69158;55.592;37.610;2023-04-28T04:54:34;19.85;;;10.27;;
79691;SDS011;69158;55.592;37.610;2023-04-28T04:57:20;18.17;;;12.05;;
79691;SDS011;69158;55.592;37.610;2023-04-28T05:00:06;21.02;;;13.15;;
79691;SDS011;69158;55.592;37.610;2023-04-28T05:02:52;22.30;;;11.00;;
79691;SDS011;69158;55.592;37.610;2023-04-28T05:05:38;19.65;;;13.23;;
79691;SDS011;69158;55.592;37.610;2023-04-28T05:08:24;20.40;;;11.68;;
79691;SDS011;69158;55.592;37.610;2023-04-28T05:11:10;17.00;;;10.40;;
79691;SDS011;69158;55.592;37.610;2023-04-28T05:13:56;17.95;;;9.90;;
79691;SDS011;69158;55.592;37.610;2023-04-28T05:16:42;18.92;;;12.27;;
79691;SDS011;69158;55.592;37.610;2023-04-28T05:19:28;22.92;;;10.63;;
79691;SDS011;69158;55.592;37.610;2023-04-28T05:22:14;19.80;;;11.40;;
79691;SDS011;69158;55.592;37.610;2023-04-28T05:25:00;16.55;;;9.23;;
79691;SDS011;69158;55.592;37.610;2023-04-28T05:27:46;17.40;;;9.35;;
79691;SDS011;69158;55.592;37.610;2023-04-28T05:30:32;15.32;;;9.65;;
79691;SDS011;69158;55.592;37.610;2023-04-28T05:33:18;16.88;;;9.95;;
79691;SDS011;69158;55.592;37.610;2023-04-28T05:36:04;18.42;;;11.45;;
79691;SDS011;69158;55.592;37.610;2023-04-28T05:38:50;17.60;;;9.43;;
79691;SDS011;69158;55.592;37.610;2023-04-28T05:41:36;16.98;;;10.10;;
79691;SDS011;69158;55.592;37.610;2023-04-28T05:44:22;15.18;;;8.02;;
79691;SDS011;69158;55.592;37.610;2023-04-28T05:47:08;19.13;;;9.65;;
79691;SDS011;69158;55.592;37.610;2023-04-28T05:49:54;17.95;;;10.27;;
79691;SDS011;69158;55.592;37.610;2023-04-28T05:52:40;18.15;;;9.18;;
79691;SDS011;69158;55.592;37.610;2023-04-28T05:55:26;20.85;;;10.50;;
79691;SDS011;69158;55.592;37.610;2023-04-28T05:58:12;18.30;;;9.40;;
79691;SDS011;69158;55.592;37.610;2023-04-28T06:00:58;18.08;;;10.40;;
79691;SDS011;69158;55.592;37.610;2023-04-28T06:03:44;21.42;;;11.73;;
79691;SDS011;69158;55.592;37.610;2023-04-28T06:06:30;19.00;;;13.57;;
79691;SDS011;69158;55.592;37.610;2023-04-28T06:09:18;16.48;;;10.45;;
79691;SDS011;69158;55.592;37.610;2023-04-28T06:15:12;16.25;;;8.68;;
79691;SDS011;69158;55.592;37.610;2023-04-28T06:17:59;14.82;;;8.20;;
79691;SDS011;69158;55.592;37.610;2023-04-28T06:20:45;14.57;;;7.80;;
79691;SDS011;69158;55.592;37.610;2023-04-28T06:23:32;13.60;;;7.15;;
79691;SDS011;69158;55.592;37.610;2023-04-28T06:26:18;19.67;;;9.18;;
79691;SDS011;69158;55.592;37.610;2023-04-28T06:29:04;13.40;;;7.10;;
79691;SDS011;69158;55.592;37.610;2023-04-28T06:31:50;13.23;;;6.78;;
79691;SDS011;69158;55.592;37.610;2023-04-28T06:34:36;13.10;;;7.90;;
79691;SDS011;69158;55.592;37.610;2023-04-28T06:37:22;13.13;;;8.70;;
79691;SDS011;69158;55.592;37.610;2023-04-28T06:40:09;14.73;;;7.78;;
79691;SDS011;69158;55.592;37.610;2023-04-28T06:42:55;12.48;;;6.53;;
79691;SDS011;69158;55.592;37.610;2023-04-28T06:45:41;12.65;;;7.30;;
79691;SDS011;69158;55.592;37.610;2023-04-28T06:48:27;12.20;;;8.13;;
79691;SDS011;69158;55.592;37.610;2023-04-28T06:51:15;14.05;;;8.45;;
79691;SDS011;69158;55.592;37.610;2023-04-28T06:54:01;12.77;;;7.47;;
79691;SDS011;69158;55.592;37.610;2023-04-28T06:56:47;13.57;;;9.15;;
79691;SDS011;69158;55.592;37.610;2023-04-28T06:59:33;11.45;;;7.60;;
79691;SDS011;69158;55.592;37.610;2023-04-28T07:02:19;11.93;;;6.97;;
79691;SDS011;69158;55.592;37.610;2023-04-28T07:05:05;14.00;;;9.30;;
79691;SDS011;69158;55.592;37.610;2023-04-28T07:07:51;13.23;;;7.15;;
79691;SDS011;69158;55.592;37.610;2023-04-28T07:10:37;12.23;;;8.60;;
79691;SDS011;69158;55.592;37.610;2023-04-28T07:13:23;10.90;;;8.48;;
79691;SDS011;69158;55.592;37.610;2023-04-28T07:16:10;9.75;;;5.90;;
79691;SDS011;69158;55.592;37.610;2023-04-28T07:18:56;11.55;;;7.38;;
79691;SDS011;69158;55.592;37.610;2023-04-28T07:21:42;10.23;;;7.57;;
79691;SDS011;69158;55.592;37.610;2023-04-28T07:24:29;17.45;;;7.65;;
79691;SDS011;69158;55.592;37.610;2023-04-28T07:27:16;11.88;;;6.53;;
79691;SDS011;69158;55.592;37.610;2023-04-28T07:30:03;11.48;;;7.30;;
79691;SDS011;69158;55.592;37.610;2023-04-28T07:32:50;9.63;;;6.75;;
79691;SDS011;69158;55.592;37.610;2023-04-28T07:35:36;11.60;;;8.73;;
79691;SDS011;69158;55.592;37.610;2023-04-28T07:38:22;14.20;;;10.15;;
79691;SDS011;69158;55.592;37.610;2023-04-28T07:41:08;11.68;;;7.03;;
79691;SDS011;69158;55.592;37.610;2023-04-28T07:43:54;11.73;;;6.55;;
79691;SDS011;69158;55.592;37.610;2023-04-28T07:46:40;13.93;;;8.48;;
79691;SDS011;69158;55.592;37.610;2023-04-28T07:49:27;11.48;;;8.88;;
79691;SDS011;69158;55.592;37.610;2023-04-28T07:52:13;14.85;;;8.65;;
79691;SDS011;69158;55.592;37.610;2023-04-28T07:54:59;11.80;;;8.43;;
79691;SDS011;69158;55.592;37.610;2023-04-28T07:57:45;12.00;;;7.28;;
79691;SDS011;69158;55.592;37.610;2023-04-28T08:00:32;13.52;;;7.47;;
79691;SDS011;69158;55.592;37.610;2023-04-28T08:03:19;12.40;;;7.93;;
79691;SDS011;69158;55.592;37.610;2023-04-28T08:06:05;13.88;;;9.93;;
79691;SDS011;69158;55.592;37.610;2023-04-28T08:08:53;13.48;;;8.38;;
79691;SDS011;69158;55.592;37.610;2023-04-28T08:11:40;12.63;;;8.23;;
79691;SDS011;69158;55.592;37.610;2023-04-28T08:14:26;15.15;;;10.77;;
79691;SDS011;69158;55.592;37.610;2023-04-28T08:17:13;14.48;;;9.68;;
79691;SDS011;69158;55.592;37.610;2023-04-28T08:19:58;15.93;;;10.95;;
79691;SDS011;69158;55.592;37.610;2023-04-28T08:22:45;16.27;;;10.00;;
79691;SDS011;69158;55.592;37.610;2023-04-28T08:25:31;13.43;;;9.07;;
79691;SDS011;69158;55.592;37.610;2023-04-28T08:28:16;13.15;;;9.55;;
79691;SDS011;69158;55.592;37.610;2023-04-28T08:31:02;15.63;;;10.15;;
79691;SDS011;69158;55.592;37.610;2023-04-28T08:33:49;15.18;;;10.93;;
79691;SDS011;69158;55.592;37.610;2023-04-28T08:36:35;14.75;;;9.57;;
79691;SDS011;69158;55.592;37.610;2023-04-28T08:39:21;16.98;;;12.05;;
79691;SDS011;69158;55.592;37.610;2023-04-28T08:42:08;18.83;;;13.07;;
79691;SDS011;69158;55.592;37.610;2023-04-28T08:44:55;17.17;;;12.23;;
79691;SDS011;69158;55.592;37.610;2023-04-28T08:50:30;15.93;;;11.65;;
79691;SDS011;69158;55.592;37.610;2023-04-28T08:53:25;17.50;;;14.15;;
79691;SDS011;69158;55.592;37.610;2023-04-28T08:56:11;17.85;;;12.38;;
79691;SDS011;69158;55.592;37.610;2023-04-28T08:59:01;18.50;;;13.68;;
79691;SDS011;69158;55.592;37.610;2023-04-28T09:01:49;18.92;;;13.95;;
79691;SDS011;69158;55.592;37.610;2023-04-28T09:04:35;22.65;;;19.48;;
79691;SDS011;69158;55.592;37.610;2023-04-28T09:07:21;20.48;;;17.33;;
79691;SDS011;69158;55.592;37.610;2023-04-28T09:10:17;20.90;;;17.27;;
79691;SDS011;69158;55.592;37.610;2023-04-28T09:13:05;19.50;;;15.55;;
79691;SDS011;69158;55.592;37.610;2023-04-28T09:15:51;20.35;;;14.50;;
79691;SDS011;69158;55.592;37.610;2023-04-28T09:19:02;19.40;;;15.10;;
79691;SDS011;69158;55.592;37.610;2023-04-28T09:21:52;17.08;;;12.05;;
79691;SDS011;69158;55.592;37.610;2023-04-28T09:24:39;18.33;;;13.55;;
79691;SDS011;69158;55.592;37.610;2023-04-28T09:27:27;18.30;;;12.82;;
79691;SDS011;69158;55.592;37.610;2023-04-28T09:30:13;16.58;;;10.77;;
79691;SDS011;69158;55.592;37.610;2023-04-28T09:33:03;15.93;;;10.00;;
79691;SDS011;69158;55.592;37.610;2023-04-28T09:35:51;14.48;;;12.07;;
79691;SDS011;69158;55.592;37.610;2023-04-28T09:38:42;16.58;;;12.15;;
79691;SDS011;69158;55.592;37.610;2023-04-28T09:41:35;15.52;;;13.73;;
79691;SDS011;69158;55.592;37.610;2023-04-28T09:44:25;15.90;;;12.20;;
79691;SDS011;69158;55.592;37.610;2023-04-28T09:47:20;17.35;;;13.10;;
79691;SDS011;69158;55.592;37.610;2023-04-28T09:50:10;17.70;;;12.50;;
79691;SDS011;69158;55.592;37.610;2023-04-28T09:52:59;19.55;;;15.38;;
79691;SDS011;69158;55.592;37.610;2023-04-28T09:55:45;19.38;;;13.88;;
79691;SDS011;69158;55.592;37.610;2023-04-28T09:58:33;19.80;;;16.40;;
79691;SDS011;69158;55.592;37.610;2023-04-28T10:01:19;17.33;;;14.27;;
79691;SDS011;69158;55.592;37.610;2023-04-28T10:04:05;17.35;;;13.07;;
79691;SDS011;69158;55.592;37.610;2023-04-28T10:06:52;19.55;;;14.70;;
79691;SDS011;69158;55.592;37.610;2023-04-28T10:09:38;19.08;;;14.68;;
79691;SDS011;69158;55.592;37.610;2023-04-28T10:12:28;22.05;;;16.90;;
79691;SDS011;69158;55.592;37.610;2023-04-28T10:15:14;17.85;;;15.70;;
79691;SDS011;69158;55.592;37.610;2023-04-28T10:18:02;17.30;;;14.02;;
79691;SDS011;69158;55.592;37.610;2023-04-28T10:20:54;16.63;;;13.23;;
79691;SDS011;69158;55.592;37.610;2023-04-28T10:29:51;16.17;;;12.63;;
79691;SDS011;69158;55.592;37.610;2023-04-28T10:32:38;18.25;;;12.60;;
79691;SDS011;69158;55.592;37.610;2023-04-28T10:38:17;18.95;;;14.90;;
79691;SDS011;69158;55.592;37.610;2023-04-28T10:41:06;16.65;;;14.25;;
79691;SDS011;69158;55.592;37.610;2023-04-28T10:47:12;16.48;;;13.30;;
79691;SDS011;69158;55.592;37.610;2023-04-28T10:52:47;15.40;;;11.43;;
79691;SDS011;69158;55.592;37.610;2023-04-28T10:55:34;17.42;;;12.10;;
79691;SDS011;69158;55.592;37.610;2023-04-28T11:01:30;14.57;;;8.60;;
79691;SDS011;69158;55.592;37.610;2023-04-28T11:04:18;20.23;;;11.73;;
79691;SDS011;69158;55.592;37.610;2023-04-28T11:07:09;25.35;;;16.80;;
79691;SDS011;69158;55.592;37.610;2023-04-28T11:09:58;21.77;;;13.82;;
79691;SDS011;69158;55.592;37.610;2023-04-28T11:16:07;25.05;;;16.08;;
79691;SDS011;69158;55.592;37.610;2023-04-28T11:18:57;21.80;;;13.90;;
79691;SDS011;69158;55.592;37.610;2023-04-28T11:21:50;21.08;;;16.08;;
79691;SDS011;69158;55.592;37.610;2023-04-28T11:24:40;21.83;;;15.15;;
79691;SDS011;69158;55.592;37.610;2023-04-28T11:27:27;21.35;;;13.27;;
79691;SDS011;69158;55.592;37.610;2023-04-28T11:30:21;22.52;;;13.98;;
79691;SDS011;69158;55.592;37.610;2023-04-28T11:33:08;19.48;;;13.88;;
79691;SDS011;69158;55.592;37.610;2023-04-28T11:35:54;18.58;;;12.88;;
79691;SDS011;69158;55.592;37.610;2023-04-28T11:38:44;22.40;;;15.75;;
79691;SDS011;69158;55.592;37.610;2023-04-28T11:41:30;22.67;;;16.63;;
79691;SDS011;69158;55.592;37.610;2023-04-28T11:44:17;19.60;;;15.35;;
79691;SDS011;69158;55.592;37.610;2023-04-28T11:47:04;23.75;;;14.02;;
79691;SDS011;69158;55.592;37.610;2023-04-28T11:49:51;20.45;;;14.63;;
79691;SDS011;69158;55.592;37.610;2023-04-28T11:52:46;19.20;;;14.73;;
79691;SDS011;69158;55.592;37.610;2023-04-28T11:55:33;18.27;;;12.60;;
79691;SDS011;69158;55.592;37.610;2023-04-28T11:58:19;18.45;;;13.02;;
79691;SDS011;69158;55.592;37.610;2023-04-28T12:01:08;17.17;;;12.63;;
79691;SDS011;69158;55.592;37.610;2023-04-28T12:03:56;18.45;;;11.95;;
79691;SDS011;69158;55.592;37.610;2023-04-28T12:06:42;19.58;;;13.88;;
79691;SDS011;69158;55.592;37.610;2023-04-28T12:09:28;14.40;;;10.27;;
79691;SDS011;69158;55.592;37.610;2023-04-28T12:12:15;18.10;;;11.90;;
79691;SDS011;69158;55.592;37.610;2023-04-28T12:15:38;13.52;;;9.75;;
79691;SDS011;69158;55.592;37.610;2023-04-28T12:18:28;14.48;;;10.65;;
79691;SDS011;69158;55.592;37.610;2023-04-28T12:21:20;17.58;;;12.20;;
79691;SDS011;69158;55.592;37.610;2023-04-28T12:24:19;17.88;;;13.55;;
79691;SDS011;69158;55.592;37.610;2023-04-28T12:32:55;13.80;;;10.25;;
79691;SDS011;69158;55.592;37.610;2023-04-28T12:35:42;15.70;;;10.40;;
79691;SDS011;69158;55.592;37.610;2023-04-28T12:38:29;17.30;;;12.20;;
79691;SDS011;69158;55.592;37.610;2023-04-28T12:41:15;15.02;;;10.38;;
79691;SDS011;69158;55.592;37.610;2023-04-28T12:44:01;14.13;;;9.65;;
79691;SDS011;69158;55.592;37.610;2023-04-28T12:46:47;19.02;;;12.00;;
79691;SDS011;69158;55.592;37.610;2023-04-28T12:49:34;15.43;;;12.43;;
79691;SDS011;69158;55.592;37.610;2023-04-28T12:52:20;14.63;;;11.57;;
79691;SDS011;69158;55.592;37.610;2023-04-28T12:55:07;17.90;;;12.32;;
79691;SDS011;69158;55.592;37.610;2023-04-28T12:57:53;16.45;;;10.75;;
79691;SDS011;69158;55.592;37.610;2023-04-28T13:00:39;16.77;;;11.68;;
79691;SDS011;69158;55.592;37.610;2023-04-28T13:03:29;16.77;;;10.82;;
79691;SDS011;69158;55.592;37.610;2023-04-28T13:06:15;13.57;;;9.48;;
79691;SDS011;69158;55.592;37.610;2023-04-28T13:09:01;15.35;;;9.65;;
79691;SDS011;69158;55.592;37.610;2023-04-28T13:11:48;15.60;;;11.65;;
79691;SDS011;69158;55.592;37.610;2023-04-28T13:14:34;16.17;;;11.43;;
79691;SDS011;69158;55.592;37.610;2023-04-28T13:17:20;14.98;;;11.23;;
79691;SDS011;69158;55.592;37.610;2023-04-28T13:20:07;14.45;;;8.35;;
79691;SDS011;69158;55.592;37.610;2023-04-28T13:22:54;14.73;;;9.68;;
79691;SDS011;69158;55.592;37.610;2023-04-28T13:25:40;10.32;;;7.22;;
79691;SDS011;69158;55.592;37.610;2023-04-28T13:28:27;10.32;;;6.75;;
79691;SDS011;69158;55.592;37.610;2023-04-28T13:31:13;10.02;;;5.50;;
79691;SDS011;69158;55.592;37.610;2023-04-28T13:33:59;11.57;;;7.03;;
79691;SDS011;69158;55.592;37.610;2023-04-28T13:36:46;11.00;;;6.55;;
79691;SDS011;69158;55.592;37.610;2023-04-28T13:39:45;10.70;;;7.22;;
79691;SDS011;69158;55.592;37.610;2023-04-28T13:42:31;11.05;;;6.25;;
79691;SDS011;69158;55.592;37.610;2023-04-28T13:45:17;9.68;;;5.93;;
79691;SDS011;69158;55.592;37.610;2023-04-28T13:48:04;9.30;;;5.60;;
79691;SDS011;69158;55.592;37.610;2023-04-28T13:50:50;10.40;;;6.10;;
79691;SDS011;69158;55.592;37.610;2023-04-28T13:53:37;9.52;;;5.05;;
79691;SDS011;69158;55.592;37.610;2023-04-28T13:56:23;9.60;;;5.40;;
79691;SDS011;69158;55.592;37.610;2023-04-28T13:59:09;11.07;;;6.90;;
79691;SDS011;69158;55.592;37.610;2023-04-28T14:01:55;10.23;;;5.22;;
79691;SDS011;69158;55.592;37.610;2023-04-28T14:04:42;11.23;;;4.93;;
79691;SDS011;69158;55.592;37.610;2023-04-28T14:07:32;11.63;;;6.30;;
79691;SDS011;69158;55.592;37.610;2023-04-28T14:10:18;10.90;;;5.53;;
79691;SDS011;69158;55.592;37.610;2023-04-28T14:13:04;8.30;;;5.30;;
79691;SDS011;69158;55.592;37.610;2023-04-28T14:15:51;8.75;;;5.15;;
79691;SDS011;69158;55.592;37.610;2023-04-28T14:18:38;13.85;;;5.47;;
79691;SDS011;69158;55.592;37.610;2023-04-28T14:25:06;11.27;;;6.20;;
79691;SDS011;69158;55.592;37.610;2023-04-28T14:27:53;10.40;;;5.00;;
79691;SDS011;69158;55.592;37.610;2023-04-28T14:30:39;10.18;;;4.78;;
79691;SDS011;69158;55.592;37.610;2023-04-28T14:33:25;13.23;;;5.70;;
79691;SDS011;69158;55.592;37.610;2023-04-28T14:36:11;10.85;;;4.30;;
79691;SDS011;69158;55.592;37.610;2023-04-28T14:38:57;10.90;;;4.80;;
79691;SDS011;69158;55.592;37.610;2023-04-28T14:41:44;10.38;;;4.00;;
79691;SDS011;69158;55.592;37.610;2023-04-28T14:44:30;10.90;;;4.95;;
79691;SDS011;69158;55.592;37.610;2023-04-28T14:47:16;9.52;;;4.90;;
79691;SDS011;69158;55.592;37.610;2023-04-28T14:50:02;9.77;;;3.58;;
79691;SDS011;69158;55.592;37.610;2023-04-28T14:52:48;10.70;;;4.25;;
79691;SDS011;69158;55.592;37.610;2023-04-28T14:55:34;11.95;;;4.63;;
79691;SDS011;69158;55.592;37.610;2023-04-28T14:58:20;9.35;;;3.92;;
79691;SDS011;69158;55.592;37.610;2023-04-28T15:01:06;11.18;;;3.65;;
79691;SDS011;69158;55.592;37.610;2023-04-28T15:03:53;10.10;;;4.97;;
79691;SDS011;69158;55.592;37.610;2023-04-28T15:06:39;9.95;;;4.25;;
79691;SDS011;69158;55.592;37.610;2023-04-28T15:09:26;7.88;;;3.63;;
79691;SDS011;69158;55.592;37.610;2023-04-28T15:12:12;9.30;;;4.13;;
79691;SDS011;69158;55.592;37.610;2023-04-28T15:14:58;8.20;;;3.53;;
79691;SDS011;69158;55.592;37.610;2023-04-28T15:17:44;8.20;;;3.42;;
79691;SDS011;69158;55.592;37.610;2023-04-28T15:20:32;9.48;;;4.82;;
79691;SDS011;69158;55.592;37.610;2023-04-28T15:23:21;9.35;;;2.88;;
79691;SDS011;69158;55.592;37.610;2023-04-28T15:26:08;7.78;;;3.70;;
79691;SDS011;69158;55.592;37.610;2023-04-28T15:28:55;9.10;;;3.47;;
79691;SDS011;69158;55.592;37.610;2023-04-28T15:31:42;8.88;;;3.95;;
79691;SDS011;69158;55.592;37.610;2023-04-28T15:34:28;10.75;;;4.40;;
79691;SDS011;69158;55.592;37.610;2023-04-28T15:37:36;7.28;;;3.05;;
79691;SDS011;69158;55.592;37.610;2023-04-28T15:40:22;10.18;;;2.95;;
79691;SDS011;69158;55.592;37.610;2023-04-28T15:43:08;10.55;;;3.47;;
79691;SDS011;69158;55.592;37.610;2023-04-28T15:45:54;8.93;;;3.42;;
79691;SDS011;69158;55.592;37.610;2023-04-28T15:48:41;6.40;;;3.00;;
79691;SDS011;69158;55.592;37.610;2023-04-28T15:51:28;6.47;;;2.67;;
79691;SDS011;69158;55.592;37.610;2023-04-28T15:54:14;7.13;;;3.45;;
79691;SDS011;69158;55.592;37.610;2023-04-28T15:57:00;6.97;;;3.08;;
79691;SDS011;69158;55.592;37.610;2023-04-28T15:59:46;5.43;;;2.08;;
79691;SDS011;69158;55.592;37.610;2023-04-28T16:02:32;7.32;;;2.85;;
79691;SDS011;69158;55.592;37.610;2023-04-28T16:05:18;8.27;;;2.15;;
79691;SDS011;69158;55.592;37.610;2023-04-28T16:08:04;10.38;;;3.55;;
79691;SDS011;69158;55.592;37.610;2023-04-28T16:10:51;8.02;;;2.58;;
79691;SDS011;69158;55.592;37.610;2023-04-28T16:13:37;5.68;;;2.25;;
79691;SDS011;69158;55.592;37.610;2023-04-28T16:18:57;5.90;;;1.88;;
79691;SDS011;69158;55.592;37.610;2023-04-28T16:21:43;6.60;;;2.05;;
79691;SDS011;69158;55.592;37.610;2023-04-28T16:24:29;7.65;;;1.90;;
79691;SDS011;69158;55.592;37.610;2023-04-28T16:27:16;6.07;;;1.70;;
79691;SDS011;69158;55.592;37.610;2023-04-28T16:30:02;5.95;;;2.20;;
79691;SDS011;69158;55.592;37.610;2023-04-28T16:32:51;5.10;;;1.70;;
79691;SDS011;69158;55.592;37.610;2023-04-28T16:35:37;7.78;;;2.63;;
79691;SDS011;69158;55.592;37.610;2023-04-28T16:38:23;7.80;;;1.95;;
79691;SDS011;69158;55.592;37.610;2023-04-28T16:41:09;7.35;;;2.50;;
79691;SDS011;69158;55.592;37.610;2023-04-28T16:43:55;4.82;;;1.88;;
79691;SDS011;69158;55.592;37.610;2023-04-28T16:46:41;5.50;;;2.00;;